sensor_id;sensor_type;location;lat;lon;timestamp;P1;durP1;ratioP1;P2;durP2;ratioP2
40781;SDS011;26493;51.938;7.626;2022-08-21T00:00:53;19.55;;;11.63;;
40781;SDS011;26493;51.938;7.626;2022-08-21T00:03:19;21.08;;;12.63;;
40781;SDS011;26493;51.938;7.626;2022-08-21T00:05:46;19.10;;;12.00;;
40781;SDS011;26493;51.938;7.626;2022-08-21T00:08:14;20.05;;;11.75;;
40781;SDS011;26493;51.938;7.626;2022-08-21T00:10:41;19.42;;;12.00;;
40781;SDS011;26493;51.938;7.626;2022-08-21T00:13:07;20.67;;;13.07;;
40781;SDS011;26493;51.938;7.626;2022-08-21T00:15:35;23.13;;;14.13;;
40781;SDS011;26493;51.938;7.626;2022-08-21T00:18:01;22.52;;;12.43;;
40781;SDS011;26493;51.938;7.626;2022-08-21T00:20:27;20.67;;;12.27;;
40781;SDS011;26493;51.938;7.626;2022-08-21T00:22:53;19.90;;;13.38;;
40781;SDS011;26493;51.938;7.626;2022-08-21T00:25:20;22.30;;;13.20;;
40781;SDS011;26493;51.938;7.626;2022-08-21T00:27:46;20.75;;;12.35;;
40781;SDS011;26493;51.938;7.626;2022-08-21T00:30:12;20.67;;;12.40;;
40781;SDS011;26493;51.938;7.626;2022-08-21T00:32:39;22.50;;;12.38;;
40781;SDS011;26493;51.938;7.626;2022-08-21T00:35:06;19.65;;;11.63;;
40781;SDS011;26493;51.938;7.626;2022-08-21T00:37:33;22.83;;;12.27;;
40781;SDS011;26493;51.938;7.626;2022-08-21T00:39:59;20.98;;;12.07;;
40781;SDS011;26493;51.938;7.626;2022-08-21T00:42:26;21.85;;;12.48;;
40781;SDS011;26493;51.938;7.626;2022-08-21T00:44:53;19.75;;;12.32;;
40781;SDS011;26493;51.938;7.626;2022-08-21T00:47:19;23.63;;;12.98;;
40781;SDS011;26493;51.938;7.626;2022-08-21T00:49:45;21.17;;;12.82;;
40781;SDS011;26493;51.938;7.626;2022-08-21T00:52:19;19.63;;;12.23;;
40781;SDS011;26493;51.938;7.626;2022-08-21T00:54:46;21.13;;;12.88;;
40781;SDS011;26493;51.938;7.626;2022-08-21T00:57:18;19.23;;;12.10;;
40781;SDS011;26493;51.938;7.626;2022-08-21T00:59:46;23.58;;;12.07;;
40781;SDS011;26493;51.938;7.626;2022-08-21T01:02:13;22.20;;;12.20;;
40781;SDS011;26493;51.938;7.626;2022-08-21T01:04:39;19.42;;;12.57;;
40781;SDS011;26493;51.938;7.626;2022-08-21T01:07:05;20.98;;;12.07;;
40781;SDS011;26493;51.938;7.626;2022-08-21T01:09:31;21.85;;;12.57;;
40781;SDS011;26493;51.938;7.626;2022-08-21T01:11:58;20.42;;;13.02;;
40781;SDS011;26493;51.938;7.626;2022-08-21T01:14:24;23.73;;;11.73;;
40781;SDS011;26493;51.938;7.626;2022-08-21T01:16:51;20.70;;;12.35;;
40781;SDS011;26493;51.938;7.626;2022-08-21T01:19:18;19.58;;;12.35;;
40781;SDS011;26493;51.938;7.626;2022-08-21T01:21:45;25.30;;;13.07;;
40781;SDS011;26493;51.938;7.626;2022-08-21T01:24:11;23.17;;;12.65;;
40781;SDS011;26493;51.938;7.626;2022-08-21T01:26:38;21.15;;;12.00;;
40781;SDS011;26493;51.938;7.626;2022-08-21T01:29:25;18.00;;;12.13;;
40781;SDS011;26493;51.938;7.626;2022-08-21T01:31:52;19.88;;;11.23;;
40781;SDS011;26493;51.938;7.626;2022-08-21T01:34:18;19.60;;;12.55;;
40781;SDS011;26493;51.938;7.626;2022-08-21T01:36:45;19.83;;;12.00;;
40781;SDS011;26493;51.938;7.626;2022-08-21T01:39:11;22.52;;;11.63;;
40781;SDS011;26493;51.938;7.626;2022-08-21T01:41:37;21.83;;;12.45;;
40781;SDS011;26493;51.938;7.626;2022-08-21T01:44:03;21.65;;;12.13;;
40781;SDS011;26493;51.938;7.626;2022-08-21T01:46:30;18.48;;;12.25;;
40781;SDS011;26493;51.938;7.626;2022-08-21T01:48:56;22.80;;;12.10;;
40781;SDS011;26493;51.938;7.626;2022-08-21T01:51:22;22.40;;;13.00;;
40781;SDS011;26493;51.938;7.626;2022-08-21T01:53:48;19.75;;;12.30;;
40781;SDS011;26493;51.938;7.626;2022-08-21T01:56:15;22.77;;;12.32;;
40781;SDS011;26493;51.938;7.626;2022-08-21T01:58:42;27.73;;;12.77;;
40781;SDS011;26493;51.938;7.626;2022-08-21T02:01:08;21.52;;;12.95;;
40781;SDS011;26493;51.938;7.626;2022-08-21T02:03:34;22.58;;;13.15;;
40781;SDS011;26493;51.938;7.626;2022-08-21T02:06:00;22.38;;;12.85;;
40781;SDS011;26493;51.938;7.626;2022-08-21T02:08:27;26.95;;;12.90;;
40781;SDS011;26493;51.938;7.626;2022-08-21T02:10:53;22.10;;;12.68;;
40781;SDS011;26493;51.938;7.626;2022-08-21T02:13:19;21.25;;;12.82;;
40781;SDS011;26493;51.938;7.626;2022-08-21T02:15:45;19.02;;;12.85;;
40781;SDS011;26493;51.938;7.626;2022-08-21T02:18:11;20.80;;;12.98;;
40781;SDS011;26493;51.938;7.626;2022-08-21T02:20:39;20.25;;;13.02;;
40781;SDS011;26493;51.938;7.626;2022-08-21T02:25:32;22.10;;;13.82;;
40781;SDS011;26493;51.938;7.626;2022-08-21T02:27:59;21.95;;;12.70;;
40781;SDS011;26493;51.938;7.626;2022-08-21T02:30:36;21.92;;;12.68;;
40781;SDS011;26493;51.938;7.626;2022-08-21T02:33:03;24.20;;;15.10;;
40781;SDS011;26493;51.938;7.626;2022-08-21T02:35:30;22.10;;;14.13;;
40781;SDS011;26493;51.938;7.626;2022-08-21T02:37:59;24.05;;;14.18;;
40781;SDS011;26493;51.938;7.626;2022-08-21T02:40:28;23.52;;;13.38;;
40781;SDS011;26493;51.938;7.626;2022-08-21T02:42:55;22.00;;;13.50;;
40781;SDS011;26493;51.938;7.626;2022-08-21T02:45:21;22.95;;;13.70;;
40781;SDS011;26493;51.938;7.626;2022-08-21T02:47:51;23.33;;;14.45;;
40781;SDS011;26493;51.938;7.626;2022-08-21T02:50:19;21.70;;;14.10;;
40781;SDS011;26493;51.938;7.626;2022-08-21T02:52:45;23.63;;;14.63;;
40781;SDS011;26493;51.938;7.626;2022-08-21T02:55:11;23.13;;;14.32;;
40781;SDS011;26493;51.938;7.626;2022-08-21T02:57:37;22.70;;;15.90;;
40781;SDS011;26493;51.938;7.626;2022-08-21T03:00:04;26.05;;;15.57;;
40781;SDS011;26493;51.938;7.626;2022-08-21T03:02:30;29.13;;;15.45;;
40781;SDS011;26493;51.938;7.626;2022-08-21T03:04:56;22.88;;;15.38;;
40781;SDS011;26493;51.938;7.626;2022-08-21T03:07:22;25.63;;;16.38;;
40781;SDS011;26493;51.938;7.626;2022-08-21T03:09:48;22.52;;;15.68;;
40781;SDS011;26493;51.938;7.626;2022-08-21T03:12:14;23.10;;;16.65;;
40781;SDS011;26493;51.938;7.626;2022-08-21T03:14:40;24.92;;;15.90;;
40781;SDS011;26493;51.938;7.626;2022-08-21T03:17:06;23.13;;;16.48;;
40781;SDS011;26493;51.938;7.626;2022-08-21T03:19:32;27.90;;;17.10;;
40781;SDS011;26493;51.938;7.626;2022-08-21T03:21:59;24.77;;;17.10;;
40781;SDS011;26493;51.938;7.626;2022-08-21T03:24:24;25.13;;;16.30;;
40781;SDS011;26493;51.938;7.626;2022-08-21T03:26:51;24.45;;;16.63;;
40781;SDS011;26493;51.938;7.626;2022-08-21T03:29:17;27.85;;;16.73;;
40781;SDS011;26493;51.938;7.626;2022-08-21T03:31:43;26.60;;;16.67;;
40781;SDS011;26493;51.938;7.626;2022-08-21T03:34:09;23.77;;;16.75;;
40781;SDS011;26493;51.938;7.626;2022-08-21T03:36:35;27.52;;;17.90;;
40781;SDS011;26493;51.938;7.626;2022-08-21T03:39:02;22.52;;;15.75;;
40781;SDS011;26493;51.938;7.626;2022-08-21T03:41:28;22.02;;;16.83;;
40781;SDS011;26493;51.938;7.626;2022-08-21T03:43:54;28.92;;;17.20;;
40781;SDS011;26493;51.938;7.626;2022-08-21T03:46:20;25.20;;;17.75;;
40781;SDS011;26493;51.938;7.626;2022-08-21T03:48:46;25.85;;;17.52;;
40781;SDS011;26493;51.938;7.626;2022-08-21T03:51:13;26.25;;;17.73;;
40781;SDS011;26493;51.938;7.626;2022-08-21T03:53:40;23.98;;;17.98;;
40781;SDS011;26493;51.938;7.626;2022-08-21T03:56:06;24.67;;;17.85;;
40781;SDS011;26493;51.938;7.626;2022-08-21T03:58:32;27.67;;;18.15;;
40781;SDS011;26493;51.938;7.626;2022-08-21T04:00:59;28.25;;;17.33;;
40781;SDS011;26493;51.938;7.626;2022-08-21T04:03:26;27.50;;;17.63;;
40781;SDS011;26493;51.938;7.626;2022-08-21T04:05:52;25.15;;;18.60;;
40781;SDS011;26493;51.938;7.626;2022-08-21T04:08:18;23.48;;;17.50;;
40781;SDS011;26493;51.938;7.626;2022-08-21T04:10:45;29.05;;;19.52;;
40781;SDS011;26493;51.938;7.626;2022-08-21T04:13:12;25.20;;;18.77;;
40781;SDS011;26493;51.938;7.626;2022-08-21T04:15:39;27.13;;;19.25;;
40781;SDS011;26493;51.938;7.626;2022-08-21T04:18:06;24.00;;;17.90;;
40781;SDS011;26493;51.938;7.626;2022-08-21T04:20:33;27.75;;;18.30;;
40781;SDS011;26493;51.938;7.626;2022-08-21T04:22:59;27.27;;;18.40;;
40781;SDS011;26493;51.938;7.626;2022-08-21T04:25:25;24.75;;;18.95;;
40781;SDS011;26493;51.938;7.626;2022-08-21T04:27:51;25.70;;;18.77;;
40781;SDS011;26493;51.938;7.626;2022-08-21T04:30:17;24.42;;;19.48;;
40781;SDS011;26493;51.938;7.626;2022-08-21T04:32:47;29.10;;;20.58;;
40781;SDS011;26493;51.938;7.626;2022-08-21T04:35:14;25.20;;;19.23;;
40781;SDS011;26493;51.938;7.626;2022-08-21T04:37:40;30.35;;;19.23;;
40781;SDS011;26493;51.938;7.626;2022-08-21T04:40:07;25.95;;;20.42;;
40781;SDS011;26493;51.938;7.626;2022-08-21T04:42:40;27.73;;;19.67;;
40781;SDS011;26493;51.938;7.626;2022-08-21T04:45:06;25.85;;;20.13;;
40781;SDS011;26493;51.938;7.626;2022-08-21T04:47:32;27.08;;;20.48;;
40781;SDS011;26493;51.938;7.626;2022-08-21T04:49:58;25.40;;;20.40;;
40781;SDS011;26493;51.938;7.626;2022-08-21T04:52:24;27.27;;;20.00;;
40781;SDS011;26493;51.938;7.626;2022-08-21T04:54:50;26.55;;;21.70;;
40781;SDS011;26493;51.938;7.626;2022-08-21T04:57:17;26.30;;;20.05;;
40781;SDS011;26493;51.938;7.626;2022-08-21T04:59:46;30.42;;;24.70;;
40781;SDS011;26493;51.938;7.626;2022-08-21T05:02:13;25.77;;;19.75;;
40781;SDS011;26493;51.938;7.626;2022-08-21T05:04:42;26.48;;;19.58;;
40781;SDS011;26493;51.938;7.626;2022-08-21T05:07:10;25.45;;;19.30;;
40781;SDS011;26493;51.938;7.626;2022-08-21T05:09:38;26.23;;;18.92;;
40781;SDS011;26493;51.938;7.626;2022-08-21T05:12:04;36.42;;;27.58;;
40781;SDS011;26493;51.938;7.626;2022-08-21T05:14:30;23.20;;;19.42;;
40781;SDS011;26493;51.938;7.626;2022-08-21T05:16:56;27.58;;;21.60;;
40781;SDS011;26493;51.938;7.626;2022-08-21T05:19:23;28.33;;;18.67;;
40781;SDS011;26493;51.938;7.626;2022-08-21T05:21:50;23.73;;;18.77;;
40781;SDS011;26493;51.938;7.626;2022-08-21T05:24:16;24.95;;;18.77;;
40781;SDS011;26493;51.938;7.626;2022-08-21T05:26:43;24.23;;;18.73;;
40781;SDS011;26493;51.938;7.626;2022-08-21T05:29:09;24.08;;;19.35;;
40781;SDS011;26493;51.938;7.626;2022-08-21T05:31:36;23.73;;;18.98;;
40781;SDS011;26493;51.938;7.626;2022-08-21T05:34:02;24.70;;;19.38;;
40781;SDS011;26493;51.938;7.626;2022-08-21T05:36:28;26.10;;;19.10;;
40781;SDS011;26493;51.938;7.626;2022-08-21T05:38:54;30.02;;;19.08;;
40781;SDS011;26493;51.938;7.626;2022-08-21T05:41:20;26.98;;;19.05;;
40781;SDS011;26493;51.938;7.626;2022-08-21T05:43:46;26.77;;;18.33;;
40781;SDS011;26493;51.938;7.626;2022-08-21T05:46:12;23.75;;;18.83;;
40781;SDS011;26493;51.938;7.626;2022-08-21T05:48:38;25.88;;;18.80;;
40781;SDS011;26493;51.938;7.626;2022-08-21T05:51:08;25.13;;;18.65;;
40781;SDS011;26493;51.938;7.626;2022-08-21T05:53:35;28.33;;;19.60;;
40781;SDS011;26493;51.938;7.626;2022-08-21T05:56:01;30.17;;;20.92;;
40781;SDS011;26493;51.938;7.626;2022-08-21T05:58:28;26.25;;;18.80;;
40781;SDS011;26493;51.938;7.626;2022-08-21T06:00:54;26.85;;;18.13;;
40781;SDS011;26493;51.938;7.626;2022-08-21T06:03:21;25.52;;;19.23;;
40781;SDS011;26493;51.938;7.626;2022-08-21T06:05:48;25.35;;;18.55;;
40781;SDS011;26493;51.938;7.626;2022-08-21T06:08:14;25.63;;;18.45;;
40781;SDS011;26493;51.938;7.626;2022-08-21T06:10:41;25.70;;;17.98;;
40781;SDS011;26493;51.938;7.626;2022-08-21T06:13:07;24.23;;;17.67;;
40781;SDS011;26493;51.938;7.626;2022-08-21T06:15:33;26.10;;;18.67;;
40781;SDS011;26493;51.938;7.626;2022-08-21T06:17:59;24.58;;;19.33;;
40781;SDS011;26493;51.938;7.626;2022-08-21T06:20:25;24.25;;;18.40;;
40781;SDS011;26493;51.938;7.626;2022-08-21T06:22:51;24.30;;;17.02;;
40781;SDS011;26493;51.938;7.626;2022-08-21T06:25:17;25.48;;;17.80;;
40781;SDS011;26493;51.938;7.626;2022-08-21T06:27:44;25.70;;;18.25;;
40781;SDS011;26493;51.938;7.626;2022-08-21T06:30:10;24.75;;;17.30;;
40781;SDS011;26493;51.938;7.626;2022-08-21T06:32:36;22.73;;;16.80;;
40781;SDS011;26493;51.938;7.626;2022-08-21T06:35:03;22.92;;;17.80;;
40781;SDS011;26493;51.938;7.626;2022-08-21T06:37:29;24.48;;;17.10;;
40781;SDS011;26493;51.938;7.626;2022-08-21T06:39:56;23.27;;;17.27;;
40781;SDS011;26493;51.938;7.626;2022-08-21T06:42:22;22.70;;;16.67;;
40781;SDS011;26493;51.938;7.626;2022-08-21T06:44:48;26.15;;;17.80;;
40781;SDS011;26493;51.938;7.626;2022-08-21T06:47:14;24.25;;;16.63;;
40781;SDS011;26493;51.938;7.626;2022-08-21T06:49:40;24.38;;;17.23;;
40781;SDS011;26493;51.938;7.626;2022-08-21T06:52:10;22.00;;;16.17;;
40781;SDS011;26493;51.938;7.626;2022-08-21T06:54:36;24.58;;;16.17;;
40781;SDS011;26493;51.938;7.626;2022-08-21T06:57:03;24.85;;;15.82;;
40781;SDS011;26493;51.938;7.626;2022-08-21T06:59:29;23.13;;;16.23;;
40781;SDS011;26493;51.938;7.626;2022-08-21T07:01:55;21.75;;;16.42;;
40781;SDS011;26493;51.938;7.626;2022-08-21T07:04:21;21.40;;;15.00;;
40781;SDS011;26493;51.938;7.626;2022-08-21T07:06:47;20.23;;;14.77;;
40781;SDS011;26493;51.938;7.626;2022-08-21T07:09:13;21.83;;;15.38;;
40781;SDS011;26493;51.938;7.626;2022-08-21T07:11:39;22.17;;;14.45;;
40781;SDS011;26493;51.938;7.626;2022-08-21T07:14:05;20.60;;;14.32;;
40781;SDS011;26493;51.938;7.626;2022-08-21T07:16:32;23.23;;;14.95;;
40781;SDS011;26493;51.938;7.626;2022-08-21T07:18:58;21.40;;;14.98;;
40781;SDS011;26493;51.938;7.626;2022-08-21T07:21:24;22.02;;;14.43;;
40781;SDS011;26493;51.938;7.626;2022-08-21T07:23:50;23.80;;;15.38;;
40781;SDS011;26493;51.938;7.626;2022-08-21T07:26:18;22.75;;;14.55;;
40781;SDS011;26493;51.938;7.626;2022-08-21T07:28:46;22.20;;;14.75;;
40781;SDS011;26493;51.938;7.626;2022-08-21T07:31:13;23.38;;;14.68;;
40781;SDS011;26493;51.938;7.626;2022-08-21T07:33:39;23.65;;;14.27;;
40781;SDS011;26493;51.938;7.626;2022-08-21T07:36:06;20.13;;;14.30;;
40781;SDS011;26493;51.938;7.626;2022-08-21T07:38:38;22.08;;;14.50;;
40781;SDS011;26493;51.938;7.626;2022-08-21T07:41:18;20.40;;;14.05;;
40781;SDS011;26493;51.938;7.626;2022-08-21T07:43:45;20.92;;;13.90;;
40781;SDS011;26493;51.938;7.626;2022-08-21T07:46:11;23.15;;;14.82;;
40781;SDS011;26493;51.938;7.626;2022-08-21T07:48:37;23.02;;;14.82;;
40781;SDS011;26493;51.938;7.626;2022-08-21T07:51:11;22.33;;;14.15;;
40781;SDS011;26493;51.938;7.626;2022-08-21T07:53:37;21.90;;;14.65;;
40781;SDS011;26493;51.938;7.626;2022-08-21T07:56:04;21.60;;;15.40;;
40781;SDS011;26493;51.938;7.626;2022-08-21T07:58:31;21.05;;;14.20;;
40781;SDS011;26493;51.938;7.626;2022-08-21T08:00:57;27.50;;;14.70;;
40781;SDS011;26493;51.938;7.626;2022-08-21T08:03:23;24.83;;;14.82;;
40781;SDS011;26493;51.938;7.626;2022-08-21T08:05:49;22.70;;;14.60;;
40781;SDS011;26493;51.938;7.626;2022-08-21T08:08:16;23.88;;;15.68;;
40781;SDS011;26493;51.938;7.626;2022-08-21T08:10:42;25.02;;;15.70;;
40781;SDS011;26493;51.938;7.626;2022-08-21T08:13:08;26.42;;;16.27;;
40781;SDS011;26493;51.938;7.626;2022-08-21T08:15:35;20.95;;;15.68;;
40781;SDS011;26493;51.938;7.626;2022-08-21T08:18:01;25.38;;;16.27;;
40781;SDS011;26493;51.938;7.626;2022-08-21T08:20:28;25.90;;;15.13;;
40781;SDS011;26493;51.938;7.626;2022-08-21T08:22:54;22.88;;;16.17;;
40781;SDS011;26493;51.938;7.626;2022-08-21T08:25:21;26.77;;;17.35;;
40781;SDS011;26493;51.938;7.626;2022-08-21T08:27:48;26.20;;;16.58;;
40781;SDS011;26493;51.938;7.626;2022-08-21T08:30:15;23.67;;;16.20;;
40781;SDS011;26493;51.938;7.626;2022-08-21T08:32:41;24.00;;;15.65;;
40781;SDS011;26493;51.938;7.626;2022-08-21T08:35:08;24.45;;;16.42;;
40781;SDS011;26493;51.938;7.626;2022-08-21T08:37:34;27.17;;;17.20;;
40781;SDS011;26493;51.938;7.626;2022-08-21T08:40:03;23.55;;;16.77;;
40781;SDS011;26493;51.938;7.626;2022-08-21T08:42:30;28.02;;;17.58;;
40781;SDS011;26493;51.938;7.626;2022-08-21T08:47:23;26.30;;;16.55;;
40781;SDS011;26493;51.938;7.626;2022-08-21T08:49:55;23.27;;;16.40;;
40781;SDS011;26493;51.938;7.626;2022-08-21T08:52:26;27.15;;;16.95;;
40781;SDS011;26493;51.938;7.626;2022-08-21T08:57:25;23.02;;;15.80;;
40781;SDS011;26493;51.938;7.626;2022-08-21T08:59:52;25.98;;;17.40;;
40781;SDS011;26493;51.938;7.626;2022-08-21T09:02:20;25.27;;;16.95;;
40781;SDS011;26493;51.938;7.626;2022-08-21T09:04:48;26.35;;;16.58;;
40781;SDS011;26493;51.938;7.626;2022-08-21T09:07:19;23.23;;;16.97;;
40781;SDS011;26493;51.938;7.626;2022-08-21T09:22:42;20.30;;;15.57;;
40781;SDS011;26493;51.938;7.626;2022-08-21T09:25:22;21.73;;;15.23;;
40781;SDS011;26493;51.938;7.626;2022-08-21T09:27:49;23.92;;;14.25;;
40781;SDS011;26493;51.938;7.626;2022-08-21T09:30:16;20.88;;;15.00;;
40781;SDS011;26493;51.938;7.626;2022-08-21T09:32:42;19.85;;;13.00;;
40781;SDS011;26493;51.938;7.626;2022-08-21T09:35:10;20.15;;;13.23;;
40781;SDS011;26493;51.938;7.626;2022-08-21T09:42:54;21.17;;;14.13;;
40781;SDS011;26493;51.938;7.626;2022-08-21T09:45:20;19.17;;;14.45;;
40781;SDS011;26493;51.938;7.626;2022-08-21T09:47:46;20.25;;;14.65;;
40781;SDS011;26493;51.938;7.626;2022-08-21T09:50:20;21.63;;;14.23;;
40781;SDS011;26493;51.938;7.626;2022-08-21T09:52:54;17.70;;;13.63;;
40781;SDS011;26493;51.938;7.626;2022-08-21T09:55:23;25.02;;;14.00;;
40781;SDS011;26493;51.938;7.626;2022-08-21T09:58:10;18.60;;;14.52;;
40781;SDS011;26493;51.938;7.626;2022-08-21T10:00:36;25.15;;;12.43;;
40781;SDS011;26493;51.938;7.626;2022-08-21T10:03:18;19.92;;;10.75;;
40781;SDS011;26493;51.938;7.626;2022-08-21T10:08:20;17.90;;;10.45;;
40781;SDS011;26493;51.938;7.626;2022-08-21T10:10:50;18.63;;;12.02;;
40781;SDS011;26493;51.938;7.626;2022-08-21T10:13:20;18.60;;;12.07;;
40781;SDS011;26493;51.938;7.626;2022-08-21T10:15:52;20.40;;;14.40;;
40781;SDS011;26493;51.938;7.626;2022-08-21T10:18:27;20.90;;;14.30;;
40781;SDS011;26493;51.938;7.626;2022-08-21T10:26:38;20.95;;;14.75;;
40781;SDS011;26493;51.938;7.626;2022-08-21T10:29:03;21.15;;;14.75;;
40781;SDS011;26493;51.938;7.626;2022-08-21T10:39:41;23.67;;;14.85;;
40781;SDS011;26493;51.938;7.626;2022-08-21T10:47:47;21.17;;;14.27;;
40781;SDS011;26493;51.938;7.626;2022-08-21T10:55:11;18.13;;;13.57;;
40781;SDS011;26493;51.938;7.626;2022-08-21T10:57:58;19.52;;;14.10;;
40781;SDS011;26493;51.938;7.626;2022-08-21T11:00:28;19.50;;;10.43;;
40781;SDS011;26493;51.938;7.626;2022-08-21T11:08:45;17.30;;;11.05;;
40781;SDS011;26493;51.938;7.626;2022-08-21T11:11:14;17.55;;;10.02;;
40781;SDS011;26493;51.938;7.626;2022-08-21T11:13:45;17.23;;;10.23;;
40781;SDS011;26493;51.938;7.626;2022-08-21T11:19:15;15.93;;;10.48;;
40781;SDS011;26493;51.938;7.626;2022-08-21T11:21:45;15.43;;;10.07;;
40781;SDS011;26493;51.938;7.626;2022-08-21T11:26:47;17.88;;;10.82;;
40781;SDS011;26493;51.938;7.626;2022-08-21T11:29:27;17.30;;;10.93;;
40781;SDS011;26493;51.938;7.626;2022-08-21T11:32:02;17.60;;;11.48;;
40781;SDS011;26493;51.938;7.626;2022-08-21T11:42:17;15.95;;;10.90;;
40781;SDS011;26493;51.938;7.626;2022-08-21T12:00:05;17.40;;;10.80;;
40781;SDS011;26493;51.938;7.626;2022-08-21T12:02:35;17.25;;;11.43;;
40781;SDS011;26493;51.938;7.626;2022-08-21T12:05:08;17.75;;;11.52;;
40781;SDS011;26493;51.938;7.626;2022-08-21T12:07:39;16.40;;;10.95;;
40781;SDS011;26493;51.938;7.626;2022-08-21T12:10:08;16.98;;;11.50;;
40781;SDS011;26493;51.938;7.626;2022-08-21T12:12:36;16.27;;;11.80;;
40781;SDS011;26493;51.938;7.626;2022-08-21T12:17:36;16.73;;;11.88;;
40781;SDS011;26493;51.938;7.626;2022-08-21T12:20:57;17.20;;;12.20;;
40781;SDS011;26493;51.938;7.626;2022-08-21T12:23:43;18.30;;;12.27;;
40781;SDS011;26493;51.938;7.626;2022-08-21T12:25:43;16.77;;;12.20;;
40781;SDS011;26493;51.938;7.626;2022-08-21T12:28:10;16.23;;;12.15;;
40781;SDS011;26493;51.938;7.626;2022-08-21T12:30:39;17.83;;;12.70;;
40781;SDS011;26493;51.938;7.626;2022-08-21T12:36:09;16.13;;;11.98;;
40781;SDS011;26493;51.938;7.626;2022-08-21T12:38:43;16.67;;;11.93;;
40781;SDS011;26493;51.938;7.626;2022-08-21T12:41:20;15.50;;;10.88;;
40781;SDS011;26493;51.938;7.626;2022-08-21T12:43:51;16.45;;;10.43;;
40781;SDS011;26493;51.938;7.626;2022-08-21T12:46:20;16.63;;;11.30;;
40781;SDS011;26493;51.938;7.626;2022-08-21T12:48:49;16.65;;;11.50;;
40781;SDS011;26493;51.938;7.626;2022-08-21T12:51:18;16.40;;;11.27;;
40781;SDS011;26493;51.938;7.626;2022-08-21T12:54:02;16.05;;;11.18;;
40781;SDS011;26493;51.938;7.626;2022-08-21T12:56:30;16.60;;;11.23;;
40781;SDS011;26493;51.938;7.626;2022-08-21T12:58:57;15.45;;;10.90;;
40781;SDS011;26493;51.938;7.626;2022-08-21T13:03:54;15.82;;;11.20;;
40781;SDS011;26493;51.938;7.626;2022-08-21T13:06:21;17.25;;;11.35;;
40781;SDS011;26493;51.938;7.626;2022-08-21T13:08:49;16.88;;;10.70;;
40781;SDS011;26493;51.938;7.626;2022-08-21T13:11:18;18.20;;;11.20;;
40781;SDS011;26493;51.938;7.626;2022-08-21T13:13:48;16.05;;;11.38;;
40781;SDS011;26493;51.938;7.626;2022-08-21T13:16:17;16.00;;;11.63;;
40781;SDS011;26493;51.938;7.626;2022-08-21T13:19:00;16.52;;;11.65;;
40781;SDS011;26493;51.938;7.626;2022-08-21T13:21:30;17.45;;;11.45;;
40781;SDS011;26493;51.938;7.626;2022-08-21T13:24:12;16.35;;;11.15;;
40781;SDS011;26493;51.938;7.626;2022-08-21T13:26:39;17.00;;;11.95;;
40781;SDS011;26493;51.938;7.626;2022-08-21T13:29:09;16.65;;;11.43;;
40781;SDS011;26493;51.938;7.626;2022-08-21T13:31:36;15.80;;;11.32;;
40781;SDS011;26493;51.938;7.626;2022-08-21T13:34:03;16.35;;;11.45;;
40781;SDS011;26493;51.938;7.626;2022-08-21T13:36:31;17.05;;;11.20;;
40781;SDS011;26493;51.938;7.626;2022-08-21T13:38:58;16.45;;;10.90;;
40781;SDS011;26493;51.938;7.626;2022-08-21T13:41:26;17.10;;;11.60;;
40781;SDS011;26493;51.938;7.626;2022-08-21T13:43:57;17.30;;;11.23;;
40781;SDS011;26493;51.938;7.626;2022-08-21T13:46:24;18.23;;;11.80;;
40781;SDS011;26493;51.938;7.626;2022-08-21T13:48:52;17.85;;;11.68;;
40781;SDS011;26493;51.938;7.626;2022-08-21T13:51:19;16.38;;;12.15;;
40781;SDS011;26493;51.938;7.626;2022-08-21T13:53:47;16.10;;;12.20;;
40781;SDS011;26493;51.938;7.626;2022-08-21T13:56:33;16.85;;;12.10;;
40781;SDS011;26493;51.938;7.626;2022-08-21T13:59:06;16.98;;;12.23;;
40781;SDS011;26493;51.938;7.626;2022-08-21T14:01:33;15.70;;;11.70;;
40781;SDS011;26493;51.938;7.626;2022-08-21T14:04:14;16.92;;;11.80;;
40781;SDS011;26493;51.938;7.626;2022-08-21T14:06:42;18.23;;;12.07;;
40781;SDS011;26493;51.938;7.626;2022-08-21T14:09:13;18.25;;;12.68;;
40781;SDS011;26493;51.938;7.626;2022-08-21T14:11:41;16.45;;;11.90;;
40781;SDS011;26493;51.938;7.626;2022-08-21T14:14:20;16.02;;;11.85;;
40781;SDS011;26493;51.938;7.626;2022-08-21T14:19:21;16.50;;;11.70;;
40781;SDS011;26493;51.938;7.626;2022-08-21T14:21:48;17.92;;;14.00;;
40781;SDS011;26493;51.938;7.626;2022-08-21T14:24:30;18.55;;;14.43;;
40781;SDS011;26493;51.938;7.626;2022-08-21T14:27:06;18.48;;;14.10;;
40781;SDS011;26493;51.938;7.626;2022-08-21T14:29:37;17.33;;;13.68;;
40781;SDS011;26493;51.938;7.626;2022-08-21T14:32:37;16.55;;;13.93;;
40781;SDS011;26493;51.938;7.626;2022-08-21T14:34:56;21.42;;;14.60;;
40781;SDS011;26493;51.938;7.626;2022-08-21T14:37:23;17.05;;;14.80;;
40781;SDS011;26493;51.938;7.626;2022-08-21T14:39:49;17.15;;;14.50;;
40781;SDS011;26493;51.938;7.626;2022-08-21T14:42:15;17.90;;;14.60;;
40781;SDS011;26493;51.938;7.626;2022-08-21T14:44:41;18.33;;;14.73;;
40781;SDS011;26493;51.938;7.626;2022-08-21T14:47:08;18.73;;;15.40;;
40781;SDS011;26493;51.938;7.626;2022-08-21T14:49:34;17.20;;;14.55;;
40781;SDS011;26493;51.938;7.626;2022-08-21T14:52:00;20.67;;;15.80;;
40781;SDS011;26493;51.938;7.626;2022-08-21T14:54:27;17.05;;;14.80;;
40781;SDS011;26493;51.938;7.626;2022-08-21T14:56:53;18.17;;;13.30;;
40781;SDS011;26493;51.938;7.626;2022-08-21T14:59:20;16.73;;;13.32;;
40781;SDS011;26493;51.938;7.626;2022-08-21T15:01:46;17.95;;;13.52;;
40781;SDS011;26493;51.938;7.626;2022-08-21T15:04:12;18.65;;;13.77;;
40781;SDS011;26493;51.938;7.626;2022-08-21T15:06:38;17.45;;;14.68;;
40781;SDS011;26493;51.938;7.626;2022-08-21T15:09:04;18.50;;;14.00;;
40781;SDS011;26493;51.938;7.626;2022-08-21T15:11:32;17.02;;;13.82;;
40781;SDS011;26493;51.938;7.626;2022-08-21T15:13:59;17.00;;;13.25;;
40781;SDS011;26493;51.938;7.626;2022-08-21T15:16:26;16.73;;;13.90;;
40781;SDS011;26493;51.938;7.626;2022-08-21T15:18:53;17.67;;;13.57;;
40781;SDS011;26493;51.938;7.626;2022-08-21T15:21:19;16.92;;;13.38;;
40781;SDS011;26493;51.938;7.626;2022-08-21T15:23:45;17.52;;;13.80;;
40781;SDS011;26493;51.938;7.626;2022-08-21T15:26:11;18.55;;;13.10;;
40781;SDS011;26493;51.938;7.626;2022-08-21T15:28:37;16.33;;;12.93;;
40781;SDS011;26493;51.938;7.626;2022-08-21T15:31:04;18.48;;;13.10;;
40781;SDS011;26493;51.938;7.626;2022-08-21T15:33:30;17.92;;;13.02;;
40781;SDS011;26493;51.938;7.626;2022-08-21T15:35:56;16.33;;;12.77;;
40781;SDS011;26493;51.938;7.626;2022-08-21T15:38:22;15.60;;;12.18;;
40781;SDS011;26493;51.938;7.626;2022-08-21T15:40:49;16.85;;;12.57;;
40781;SDS011;26493;51.938;7.626;2022-08-21T15:43:21;17.05;;;13.20;;
40781;SDS011;26493;51.938;7.626;2022-08-21T15:45:47;16.35;;;12.13;;
40781;SDS011;26493;51.938;7.626;2022-08-21T15:48:14;16.52;;;12.38;;
40781;SDS011;26493;51.938;7.626;2022-08-21T15:50:40;16.83;;;12.30;;
40781;SDS011;26493;51.938;7.626;2022-08-21T15:53:06;17.30;;;12.63;;
40781;SDS011;26493;51.938;7.626;2022-08-21T15:55:32;17.63;;;13.07;;
40781;SDS011;26493;51.938;7.626;2022-08-21T15:57:59;16.23;;;12.60;;
40781;SDS011;26493;51.938;7.626;2022-08-21T16:00:25;17.58;;;12.43;;
40781;SDS011;26493;51.938;7.626;2022-08-21T16:02:53;17.48;;;12.30;;